Time;durP1;ratioP1;P1;durP2;ratioP2;P2;SDS_P1;SDS_P2;PMS_P1;PMS_P2;Temp;Humidity;BMP_temperature;BMP_pressure;BME280_temperature;BME280_humidity;BME280_pressure;Samples;Min_cycle;Max_cycle;Signal;HPM_P1;HPM_P2
2021/05/06 00:02:10;;;;;;;7.40;4.10;;;;;;;5.22;58.59;100236.56;4927613;28;20549;-79
2021/05/06 00:05:10;;;;;;;6.77;4.17;;;;;;;5.20;58.57;100246.94;4937018;28;20126;-79
2021/05/06 00:30:00;;;;;;;6.50;4.03;;;;;;;5.08;57.76;100198.47;4943179;28;20047;-79
2021/05/06 00:32:31;;;;;;;6.05;3.90;;;;;;;5.06;58.19;100194.97;4922403;28;20055;-79
2021/05/06 00:34:56;;;;;;;7.53;4.45;;;;;;;5.06;58.00;100202.75;4927763;28;20050;-79
2021/05/06 00:37:22;;;;;;;7.15;4.47;;;;;;;5.03;58.71;100201.84;4945554;28;20043;-79
2021/05/06 00:40:03;;;;;;;8.02;4.78;;;;;;;5.01;58.85;100203.53;4944452;28;20096;-79
2021/05/06 00:59:12;;;;;;;6.40;4.70;;;;;;;4.78;59.49;100194.66;4933917;28;20043;-78
2021/05/06 01:01:47;;;;;;;7.20;4.93;;;;;;;4.73;60.42;100180.78;4935975;28;20058;-79
2021/05/06 01:07:00;;;;;;;6.78;4.88;;;;;;;4.66;60.17;100176.41;4943636;28;20058;-79
2021/05/06 01:09:31;;;;;;;6.82;4.55;;;;;;;4.65;59.65;100178.97;4948386;28;20082;-79
2021/05/06 01:12:02;;;;;;;7.32;4.55;;;;;;;4.59;60.38;100161.66;4951292;28;20033;-79
2021/05/06 01:14:31;;;;;;;9.07;5.47;;;;;;;4.57;60.19;100169.41;4930181;28;20645;-79
2021/05/06 01:16:57;;;;;;;7.25;5.10;;;;;;;4.53;60.77;100167.63;4927977;28;20031;-79
2021/05/06 01:19:23;;;;;;;6.57;5.05;;;;;;;4.50;60.32;100158.94;4916165;28;20089;-79
2021/05/06 01:21:48;;;;;;;7.18;5.05;;;;;;;4.48;60.59;100163.25;4934454;28;20124;-79
2021/05/06 01:24:14;;;;;;;7.07;5.15;;;;;;;4.46;60.13;100163.25;4916372;28;20058;-79
2021/05/06 01:26:54;;;;;;;7.30;5.22;;;;;;;4.43;60.46;100161.47;4938630;28;20544;-78
2021/05/06 01:29:31;;;;;;;6.72;4.93;;;;;;;4.40;60.35;100158.88;4949492;28;20056;-79
2021/05/06 01:34:43;;;;;;;9.60;5.18;;;;;;;4.36;60.67;100157.09;4936909;28;20477;-80
2021/05/06 01:37:23;;;;;;;7.95;4.90;;;;;;;4.34;60.26;100161.34;4903386;28;20050;-80
2021/05/06 01:40:42;;;;;;;7.82;4.90;;;;;;;4.33;60.41;100154.44;4948459;28;20105;-78
2021/05/06 01:42:55;;;;;;;6.88;4.88;;;;;;;4.32;60.05;100155.31;4960259;28;20071;-78
2021/05/06 01:58:58;;;;;;;7.68;4.53;;;;;;;4.38;60.83;100146.75;4942093;28;20632;-79
2021/05/06 02:01:24;;;;;;;6.88;4.35;;;;;;;4.36;59.98;100151.91;4931273;28;20388;-77
2021/05/06 02:03:50;;;;;;;7.63;4.35;;;;;;;4.34;60.06;100143.25;4930538;28;20061;-79
2021/05/06 02:06:16;;;;;;;7.28;4.18;;;;;;;4.31;59.82;100140.63;4932219;28;20429;-78
2021/05/06 02:08:42;;;;;;;6.63;4.45;;;;;;;4.28;60.57;100145.78;4937917;28;20123;-78
2021/05/06 02:11:13;;;;;;;7.47;4.60;;;;;;;4.29;59.61;100144.03;4947228;28;20516;-78
2021/05/06 02:13:55;;;;;;;6.70;4.10;;;;;;;4.26;59.77;100138.00;4947737;28;20046;-79
2021/05/06 02:16:31;;;;;;;6.95;3.70;;;;;;;4.26;59.87;100134.50;4958143;28;20057;-79
2021/05/06 02:19:01;;;;;;;6.68;4.10;;;;;;;4.23;59.77;100130.16;4942714;28;20055;-79
2021/05/06 02:21:27;;;;;;;6.70;3.92;;;;;;;4.22;59.75;100140.50;4940051;28;20031;-79
2021/05/06 02:23:56;;;;;;;6.55;3.97;;;;;;;4.19;60.08;100136.16;4933791;28;20031;-79
2021/05/06 02:26:23;;;;;;;6.32;4.03;;;;;;;4.18;59.76;100126.66;4929117;28;20043;-79
2021/05/06 02:28:49;;;;;;;6.03;3.72;;;;;;;4.18;60.01;100136.13;4946261;28;20038;-79
2021/05/06 02:31:15;;;;;;;6.20;3.53;;;;;;;4.17;60.10;100126.66;4945782;28;20047;-78
2021/05/06 02:33:42;;;;;;;6.35;3.80;;;;;;;4.17;60.18;100127.50;4940294;28;20077;-78
2021/05/06 02:36:08;;;;;;;5.72;3.75;;;;;;;4.14;59.80;100124.91;4945223;28;20443;-79
2021/05/06 02:38:34;;;;;;;5.82;3.65;;;;;;;4.14;60.05;100124.91;4941175;28;20893;-78
2021/05/06 02:41:00;;;;;;;5.45;3.10;;;;;;;4.14;61.13;100124.00;4939186;28;20046;-79
2021/05/06 02:43:26;;;;;;;6.35;3.30;;;;;;;4.16;60.28;100127.50;4900884;29;20058;-79
2021/05/06 02:45:52;;;;;;;5.68;3.53;;;;;;;4.16;60.29;100128.34;4926895;28;20047;-79
2021/05/06 02:48:18;;;;;;;6.32;3.70;;;;;;;4.13;60.05;100125.72;4945353;28;20024;-79
2021/05/06 02:50:48;;;;;;;5.55;3.17;;;;;;;4.12;60.04;100121.41;4941263;28;20051;-79
2021/05/06 02:53:17;;;;;;;6.32;3.50;;;;;;;4.12;60.14;100112.78;4947713;28;20061;-79
2021/05/06 03:03:44;;;;;;;5.00;3.00;;;;;;;4.10;60.67;100112.78;4944071;28;20507;-79
2021/05/06 03:06:17;;;;;;;6.03;3.25;;;;;;;4.10;60.27;100110.19;4944290;28;20122;-79
2021/05/06 03:08:46;;;;;;;6.88;3.00;;;;;;;4.09;59.71;100111.88;4956622;28;20039;-79
2021/05/06 03:24:26;;;;;;;6.38;2.90;;;;;;;4.12;59.30;100092.94;4947666;28;20054;-80
2021/05/06 03:26:53;;;;;;;7.07;2.97;;;;;;;4.14;59.62;100093.84;4922511;28;20154;-79
2021/05/06 03:29:35;;;;;;;4.47;2.40;;;;;;;4.14;59.69;100092.97;4942849;28;20049;-79
2021/05/06 03:43:01;;;;;;;4.28;2.15;;;;;;;4.15;59.20;100092.97;4945634;28;20072;-79
2021/05/06 03:45:57;;;;;;;5.05;1.90;;;;;;;4.17;59.40;100087.84;4942249;28;20067;-79
2021/05/06 04:16:08;;;;;;;4.18;1.75;;;;;;;4.22;58.55;100096.50;4957402;28;20127;-79
2021/05/06 04:36:47;;;;;;;4.68;1.80;;;;;;;4.31;58.69;100098.34;4957050;28;20061;-79
2021/05/06 04:39:15;;;;;;;4.50;1.70;;;;;;;4.30;58.67;100094.88;4955513;28;21031;-79
2021/05/06 04:41:55;;;;;;;3.78;1.88;;;;;;;4.31;58.72;100099.22;4936885;28;20058;-79
2021/05/06 05:05:41;;;;;;;4.20;2.13;;;;;;;4.41;58.43;100103.63;4937449;28;20139;-78
2021/05/06 05:08:11;;;;;;;4.35;1.90;;;;;;;4.43;58.14;100101.06;4935765;28;20108;-79
2021/05/06 05:13:48;;;;;;;3.97;2.05;;;;;;;4.46;58.43;100100.22;4891529;28;20470;-79
2021/05/06 05:27:08;;;;;;;4.18;2.22;;;;;;;4.57;59.15;100103.84;4945320;28;20121;-79
2021/05/06 05:29:33;;;;;;;5.70;2.20;;;;;;;4.60;60.19;100102.13;4951612;28;20133;-79
2021/05/06 05:32:01;;;;;;;4.65;2.22;;;;;;;4.61;59.07;100105.59;4919151;28;20059;-79
2021/05/06 05:34:38;;;;;;;5.40;2.00;;;;;;;4.63;59.00;100106.47;4922422;28;20097;-78
2021/05/06 05:37:04;;;;;;;6.25;2.55;;;;;;;4.65;59.98;100102.16;4935894;28;20766;-79
2021/05/06 05:39:43;;;;;;;4.97;2.45;;;;;;;4.67;59.86;100100.47;4924987;28;20047;-79
2021/05/06 05:45:23;;;;;;;6.32;2.83;;;;;;;4.69;58.90;100098.75;4958886;28;20042;-79
2021/05/06 05:55:33;;;;;;;5.18;3.00;;;;;;;4.78;60.26;100098.84;4941768;28;20054;-79
2021/05/06 05:57:59;;;;;;;5.40;2.97;;;;;;;4.80;59.80;100101.44;4943074;28;20683;-79
2021/05/06 06:00:24;;;;;;;6.72;3.30;;;;;;;4.81;60.18;100098.03;4960522;28;20058;-79
2021/05/06 06:02:50;;;;;;;8.55;3.45;;;;;;;4.84;60.24;100107.53;4945444;28;20054;-78
2021/05/06 06:05:17;;;;;;;5.63;3.13;;;;;;;4.86;60.07;100105.81;4960490;28;20487;-79
2021/05/06 06:07:42;;;;;;;5.82;3.33;;;;;;;4.88;60.02;100112.75;4933949;28;20142;-79
2021/05/06 06:10:09;;;;;;;5.57;3.25;;;;;;;4.91;60.63;100109.34;4899804;28;20043;-79
2021/05/06 06:12:34;;;;;;;7.10;3.83;;;;;;;4.92;60.23;100105.91;4928318;28;20051;-78
2021/05/06 06:15:04;;;;;;;6.43;3.75;;;;;;;4.94;59.76;100104.19;4948046;28;20065;-79
2021/05/06 06:17:37;;;;;;;6.07;3.72;;;;;;;4.97;59.83;100104.22;4938427;28;20811;-78
2021/05/06 06:20:04;;;;;;;5.25;3.70;;;;;;;4.99;60.10;100102.50;4946729;28;20043;-78
2021/05/06 06:22:31;;;;;;;5.93;3.60;;;;;;;5.03;59.70;100101.69;4956413;28;21110;-78
2021/05/06 06:24:58;;;;;;;5.68;4.10;;;;;;;5.05;59.88;100102.56;4947498;28;20046;-79
2021/05/06 06:27:23;;;;;;;6.03;3.80;;;;;;;5.07;60.14;100106.03;4936190;28;20442;-79
2021/05/06 06:29:49;;;;;;;6.55;3.78;;;;;;;5.11;59.96;100106.94;4941798;28;20053;-79
2021/05/06 06:32:17;;;;;;;6.75;3.70;;;;;;;5.14;59.95;100100.88;4937534;28;20114;-79
2021/05/06 06:34:44;;;;;;;6.75;3.92;;;;;;;5.16;59.76;100104.38;4922673;28;20039;-78
2021/05/06 06:37:10;;;;;;;6.50;4.28;;;;;;;5.19;60.03;100106.97;4927281;28;20045;-78
2021/05/06 06:39:39;;;;;;;7.78;4.00;;;;;;;5.21;59.74;100113.06;4937793;28;20047;-78
2021/05/06 06:42:07;;;;;;;7.10;3.90;;;;;;;5.24;60.12;100106.16;4930402;28;20046;-79
2021/05/06 06:44:34;;;;;;;6.53;4.23;;;;;;;5.28;59.49;100107.06;4936089;28;20109;-78
2021/05/06 06:47:04;;;;;;;6.78;3.85;;;;;;;5.29;59.91;100101.91;4935350;28;20547;-79
2021/05/06 06:49:31;;;;;;;7.82;3.92;;;;;;;5.31;60.14;100101.91;4934316;28;20904;-79
2021/05/06 06:51:58;;;;;;;6.03;4.05;;;;;;;5.33;59.97;100101.91;4908197;28;20106;-79
2021/05/06 06:54:25;;;;;;;7.47;4.18;;;;;;;5.36;59.78;100101.94;4911694;29;20367;-78
2021/05/06 06:56:51;;;;;;;6.07;3.45;;;;;;;5.37;59.96;100099.38;4924045;28;20090;-78
2021/05/06 06:59:17;;;;;;;6.55;3.80;;;;;;;5.39;59.82;100097.66;4950956;28;20043;-78
2021/05/06 07:01:43;;;;;;;6.10;4.10;;;;;;;5.43;60.12;100102.00;4943343;28;20081;-78
2021/05/06 07:04:09;;;;;;;6.15;3.72;;;;;;;5.45;60.51;100102.00;4927515;28;20057;-78
2021/05/06 07:06:35;;;;;;;6.63;4.00;;;;;;;5.48;60.06;100104.59;4927132;28;20403;-79
2021/05/06 07:09:01;;;;;;;6.78;4.05;;;;;;;5.50;59.95;100099.44;4913546;28;20118;-78
2021/05/06 07:11:27;;;;;;;6.50;3.78;;;;;;;5.53;60.33;100105.50;4925313;28;20126;-78
2021/05/06 07:13:53;;;;;;;6.95;4.43;;;;;;;5.56;60.13;100104.69;4935316;28;20055;-77
2021/05/06 07:16:18;;;;;;;7.28;4.18;;;;;;;5.59;59.71;100099.50;4944420;28;20741;-77
2021/05/06 07:18:44;;;;;;;6.40;3.85;;;;;;;5.61;59.92;100097.81;4941499;28;20041;-77
2021/05/06 07:21:10;;;;;;;6.95;3.90;;;;;;;5.64;59.72;100097.81;4914465;28;20117;-77
2021/05/06 07:23:35;;;;;;;5.90;3.72;;;;;;;5.67;59.91;100097.81;4939842;28;20139;-78
2021/05/06 07:26:03;;;;;;;5.70;3.30;;;;;;;5.71;59.59;100097.00;4955142;28;20082;-79
2021/05/06 07:28:33;;;;;;;5.88;3.70;;;;;;;5.75;59.11;100096.16;4956104;28;20109;-79
2021/05/06 07:31:03;;;;;;;7.35;4.30;;;;;;;5.80;59.98;100099.66;4944074;28;20062;-78
2021/05/06 07:33:30;;;;;;;6.63;4.30;;;;;;;5.87;60.19;100094.47;4958022;28;20042;-79
2021/05/06 07:35:57;;;;;;;6.20;4.10;;;;;;;5.91;59.45;100097.13;4946117;28;20418;-78
2021/05/06 07:38:25;;;;;;;6.00;3.65;;;;;;;5.97;59.93;100096.28;4926521;28;20518;-79
2021/05/06 07:40:51;;;;;;;6.50;3.90;;;;;;;6.01;60.17;100090.28;4918847;28;20063;-78
2021/05/06 07:43:17;;;;;;;5.93;3.78;;;;;;;6.06;59.46;100093.72;4931841;28;20328;-79
2021/05/06 07:45:43;;;;;;;6.88;4.20;;;;;;;6.10;60.04;100087.69;4957143;28;20517;-79
2021/05/06 07:48:09;;;;;;;6.82;4.18;;;;;;;6.14;59.45;100093.78;4940118;28;20536;-79
2021/05/06 07:50:35;;;;;;;6.47;3.70;;;;;;;6.18;59.52;100081.69;4939392;28;20678;-78
2021/05/06 07:53:11;;;;;;;5.63;3.65;;;;;;;6.22;59.44;100086.03;4940479;28;20049;-78
2021/05/06 07:55:37;;;;;;;6.40;3.97;;;;;;;6.26;58.80;100080.00;4937174;28;20921;-79
2021/05/06 07:58:04;;;;;;;5.72;3.58;;;;;;;6.29;58.65;100082.59;4936183;28;20059;-78
2021/05/06 08:00:30;;;;;;;5.72;3.65;;;;;;;6.34;58.42;100074.81;4920991;28;20046;-78
2021/05/06 08:02:56;;;;;;;6.80;3.90;;;;;;;6.37;58.61;100078.31;4957089;28;20046;-79
2021/05/06 08:05:23;;;;;;;6.93;3.78;;;;;;;6.41;58.69;100074.84;4938626;28;20049;-78
2021/05/06 08:07:50;;;;;;;6.10;4.22;;;;;;;6.43;59.50;100077.44;4927166;28;20043;-78
2021/05/06 08:10:17;;;;;;;7.72;4.20;;;;;;;6.47;58.56;100072.25;4944272;28;20049;-78
2021/05/06 08:12:43;;;;;;;7.07;4.55;;;;;;;6.51;59.43;100077.44;4958741;28;20531;-78
2021/05/06 08:15:10;;;;;;;7.22;4.63;;;;;;;6.54;59.07;100077.47;4955025;28;20093;-78
2021/05/06 08:17:37;;;;;;;7.32;4.10;;;;;;;6.57;58.36;100078.34;4934625;28;20043;-78
2021/05/06 08:20:07;;;;;;;5.60;3.55;;;;;;;6.61;58.40;100074.88;4941828;28;20057;-78
2021/05/06 08:22:33;;;;;;;6.88;4.05;;;;;;;6.67;58.24;100083.56;4907594;28;20058;-78
2021/05/06 08:24:59;;;;;;;8.10;3.97;;;;;;;6.71;58.09;100083.56;4938754;28;20728;-78
2021/05/06 08:27:25;;;;;;;6.80;4.47;;;;;;;6.76;57.79;100091.38;4940747;28;20145;-78
2021/05/06 08:29:51;;;;;;;7.38;4.20;;;;;;;6.78;58.38;100085.31;4940488;28;20456;-78
2021/05/06 08:32:17;;;;;;;7.80;4.18;;;;;;;6.84;57.74;100078.38;4940166;28;20162;-78
2021/05/06 08:34:43;;;;;;;7.35;4.75;;;;;;;6.88;57.92;100082.72;4939795;28;20038;-78
2021/05/06 08:37:08;;;;;;;6.25;4.38;;;;;;;6.92;58.10;100080.16;4934842;28;20051;-78
2021/05/06 08:39:34;;;;;;;6.53;4.60;;;;;;;6.99;57.41;100075.78;4941588;28;20039;-78
2021/05/06 08:42:01;;;;;;;5.97;4.00;;;;;;;7.05;57.41;100065.41;4943133;28;20082;-77
2021/05/06 08:44:33;;;;;;;5.82;4.10;;;;;;;7.13;57.83;100070.59;4942452;28;20373;-78
2021/05/06 08:47:07;;;;;;;6.85;4.35;;;;;;;7.19;56.89;100072.34;4939557;28;21165;-78
2021/05/06 08:49:35;;;;;;;6.18;4.40;;;;;;;7.26;56.92;100077.53;4936841;28;20066;-79
2021/05/06 08:52:04;;;;;;;6.57;4.32;;;;;;;7.33;57.36;100070.59;4939546;28;20511;-78
2021/05/06 08:54:29;;;;;;;;;;;;;;;7.42;57.05;100064.50;4940555;28;20449;-78
2021/05/06 08:56:57;;;;;;;5.90;4.43;;;;;;;7.48;56.95;100067.13;4940601;28;19915;-79
2021/05/06 08:59:24;;;;;;;6.30;4.38;;;;;;;7.55;56.42;100068.84;4934604;28;20062;-78
2021/05/06 09:01:51;;;;;;;5.60;3.95;;;;;;;7.61;56.47;100061.00;4932877;28;20612;-78
2021/05/06 09:04:18;;;;;;;6.75;4.22;;;;;;;7.67;56.06;100057.53;4938103;28;20519;-78
2021/05/06 09:07:01;;;;;;;5.72;4.40;;;;;;;7.76;56.05;100054.03;4924399;28;20038;-77
2021/05/06 09:09:29;;;;;;;6.10;4.10;;;;;;;7.82;56.29;100043.59;4954125;28;20043;-78
2021/05/06 09:11:57;;;;;;;6.10;4.15;;;;;;;7.90;56.35;100041.84;4936461;28;21478;-78
2021/05/06 09:14:41;;;;;;;6.68;4.90;;;;;;;7.98;56.01;100040.06;4940243;28;20058;-78
2021/05/06 09:17:33;;;;;;;5.50;4.00;;;;;;;8.07;56.12;100043.50;4943762;28;20074;-78
2021/05/06 09:20:15;;;;;;;6.38;4.15;;;;;;;8.16;55.53;100043.47;4956034;28;20225;-79
2021/05/06 09:22:46;;;;;;;5.10;3.88;;;;;;;8.24;55.45;100051.22;4926526;28;20038;-78
2021/05/06 09:25:23;;;;;;;7.72;4.32;;;;;;;8.30;55.65;100040.78;4937553;28;20130;-78
2021/05/06 09:28:01;;;;;;;5.28;4.47;;;;;;;8.38;55.65;100046.81;4927832;28;20153;-78
2021/05/06 09:30:28;;;;;;;6.05;4.18;;;;;;;8.42;55.15;100047.66;4934786;28;20101;-78
2021/05/06 09:33:06;;;;;;;5.90;4.05;;;;;;;8.48;55.35;100042.47;4956199;28;20035;-78
2021/05/06 09:35:49;;;;;;;5.63;3.93;;;;;;;8.54;54.74;100038.94;4943290;28;20125;-78
2021/05/06 09:38:23;;;;;;;4.82;3.70;;;;;;;8.56;54.82;100038.06;4925112;28;20044;-78
2021/05/06 09:40:51;;;;;;;5.80;3.95;;;;;;;8.58;54.73;100045.88;4909804;28;20109;-78
2021/05/06 09:43:25;;;;;;;5.50;3.90;;;;;;;8.60;54.96;100033.69;4928693;28;20050;-78
2021/05/06 09:45:51;;;;;;;5.65;3.80;;;;;;;8.61;55.17;100030.22;4928174;28;20043;-78
2021/05/06 09:48:19;;;;;;;5.05;3.92;;;;;;;8.63;55.25;100020.66;4939145;28;20389;-78
2021/05/06 09:50:47;;;;;;;5.22;3.72;;;;;;;8.66;54.71;100018.03;4938730;28;20078;-78
2021/05/06 09:53:17;;;;;;;4.55;3.35;;;;;;;8.71;55.10;100013.66;4940815;28;20055;-78
2021/05/06 09:55:46;;;;;;;5.50;3.60;;;;;;;8.80;55.11;100010.94;4938151;28;20040;-78
2021/05/06 09:58:13;;;;;;;5.43;3.97;;;;;;;8.90;55.46;100014.34;4931137;28;20061;-78
2021/05/06 10:00:39;;;;;;;6.05;3.63;;;;;;;9.05;55.83;100012.50;4942060;28;20728;-79
2021/05/06 10:03:21;;;;;;;5.18;3.53;;;;;;;9.20;55.34;100009.75;4948900;28;20031;-78
2021/05/06 10:05:49;;;;;;;6.38;3.40;;;;;;;9.39;55.33;100010.44;4940007;28;20046;-78
2021/05/06 10:08:16;;;;;;;5.95;3.67;;;;;;;9.56;55.16;100010.25;4958980;28;20055;-78
2021/05/06 10:10:43;;;;;;;4.90;3.53;;;;;;;9.76;53.14;100010.03;4945902;28;20067;-79
2021/05/06 10:13:10;;;;;;;4.75;3.45;;;;;;;9.97;53.96;100002.78;4942554;28;20825;-79
2021/05/06 10:15:37;;;;;;;6.95;3.20;;;;;;;10.16;54.74;99999.09;4938399;28;20031;-77
2021/05/06 10:18:03;;;;;;;5.15;3.30;;;;;;;10.37;54.11;99989.22;4929815;28;20053;-79
2021/05/06 10:22:50;;;;;;;4.63;3.15;;;;;;;10.66;53.80;99993.16;5026807;27;20733;-48
2021/05/06 10:25:18;;;;;;;6.68;3.60;;;;;;;10.79;54.06;99989.44;5018925;28;20076;-47
2021/05/06 10:27:44;;;;;;;5.00;3.65;;;;;;;10.90;53.64;99982.28;5014186;28;20435;-48
2021/05/06 10:30:11;;;;;;;4.20;2.92;;;;;;;11.02;53.18;99982.97;5007381;28;20033;-47
2021/05/06 10:32:36;;;;;;;4.22;2.90;;;;;;;11.15;53.88;99973.16;5005636;28;20536;-48
2021/05/06 10:35:09;;;;;;;5.15;3.00;;;;;;;11.27;53.41;99972.06;5015166;28;20053;-47
2021/05/06 10:37:37;;;;;;;3.58;2.70;;;;;;;11.36;53.11;99971.91;5005219;28;20052;-45
2021/05/06 10:40:30;;;;;;;4.70;2.78;;;;;;;11.46;53.11;99970.81;5020799;28;20129;-45
2021/05/06 10:43:16;;;;;;;4.53;2.75;;;;;;;11.53;52.54;99977.69;5004464;28;20056;-44
2021/05/06 10:45:42;;;;;;;3.95;2.70;;;;;;;11.58;52.15;99975.81;5019554;28;20589;-45
2021/05/06 10:48:07;;;;;;;5.75;2.90;;;;;;;11.63;52.37;99969.63;5006519;28;20254;-45
2021/05/06 10:50:37;;;;;;;5.00;2.65;;;;;;;11.67;52.12;99966.94;5017766;28;20140;-47
2021/05/06 10:53:05;;;;;;;4.28;2.60;;;;;;;11.72;52.29;99959.81;5008184;28;20084;-48
2021/05/06 10:55:48;;;;;;;3.33;2.40;;;;;;;11.81;52.13;99965.75;5002916;28;20069;-48
2021/05/06 10:58:27;;;;;;;4.32;2.30;;;;;;;11.87;50.27;99949.94;5008295;28;102170;-48
2021/05/06 11:01:17;;;;;;;4.05;2.40;;;;;;;11.96;51.80;99943.66;5024866;28;20416;-48
2021/05/06 11:03:43;;;;;;;4.15;2.35;;;;;;;12.05;51.95;99941.69;5030376;28;20236;-48
2021/05/06 11:06:39;;;;;;;4.13;2.30;;;;;;;12.17;51.90;99942.31;5017429;28;20033;-48
2021/05/06 11:09:36;;;;;;;4.15;2.13;;;;;;;12.30;51.64;99942.91;5037087;28;20960;-47
2021/05/06 11:12:18;;;;;;;4.57;2.10;;;;;;;12.43;50.97;99931.22;5011493;28;20463;-47
2021/05/06 11:14:59;;;;;;;3.65;1.90;;;;;;;12.56;50.32;99934.41;5011337;28;20579;-45
2021/05/06 11:17:46;;;;;;;4.57;2.15;;;;;;;12.67;48.71;99937.63;5015427;28;20179;-46
2021/05/06 11:21:51;;;;;;;2.72;1.58;;;;;;;12.87;49.91;99931.00;5154336;27;20126;-47
2021/05/06 11:24:17;;;;;;;3.72;2.03;;;;;;;12.99;49.58;99927.19;5106631;27;20037;-47
2021/05/06 11:27:16;;;;;;;3.97;1.90;;;;;;;13.11;49.34;99922.50;5124373;27;20157;-47
2021/05/06 11:29:42;;;;;;;;;;;;;;;13.23;49.08;99915.19;5111130;27;20062;-47
2021/05/06 11:32:20;;;;;;;2.70;1.77;;;;;;;13.33;49.03;99905.28;5126315;27;19919;-47
2021/05/06 11:34:51;;;;;;;4.28;2.08;;;;;;;13.41;48.78;99898.09;5122906;27;20385;-47
2021/05/06 11:37:22;;;;;;;4.18;2.13;;;;;;;13.48;48.40;99889.13;5123225;27;20047;-49
2021/05/06 11:39:59;;;;;;;3.17;1.80;;;;;;;13.53;48.31;99887.22;5124317;27;20564;-48
2021/05/06 11:42:27;;;;;;;4.18;2.28;;;;;;;13.58;46.87;99889.69;5122999;27;20035;-47
2021/05/06 11:45:31;;;;;;;4.22;1.75;;;;;;;13.65;48.00;99883.34;5124736;27;20942;-48
2021/05/06 11:47:57;;;;;;;4.00;1.77;;;;;;;13.70;47.56;99872.72;5092239;27;20394;-48
2021/05/06 11:50:28;;;;;;;3.80;1.75;;;;;;;13.74;47.86;99861.22;5121791;27;20035;-48
2021/05/06 11:52:56;;;;;;;4.03;2.00;;;;;;;13.78;46.98;99871.59;5114127;27;20047;-47
2021/05/06 11:55:42;;;;;;;2.97;1.80;;;;;;;13.83;47.03;99860.97;5114309;27;20037;-48
2021/05/06 11:58:09;;;;;;;3.22;1.60;;;;;;;13.88;46.48;99866.91;5120660;27;20047;-45
2021/05/06 12:00:37;;;;;;;3.63;1.85;;;;;;;13.91;46.83;99855.44;5124633;27;20039;-47
2021/05/06 12:03:05;;;;;;;3.42;1.70;;;;;;;13.94;46.75;99850.97;5125655;27;20172;-48
2021/05/06 12:05:59;;;;;;;3.63;1.80;;;;;;;14.00;47.30;99854.28;5127627;27;20035;-47
2021/05/06 12:08:49;;;;;;;3.13;1.45;;;;;;;14.00;47.80;99852.53;5118609;27;20742;-44
2021/05/06 12:11:16;;;;;;;2.40;1.42;;;;;;;14.02;46.63;99847.22;5123216;27;20558;-45
2021/05/06 12:13:43;;;;;;;4.47;1.60;;;;;;;14.02;47.34;99848.06;5122141;27;20035;-47
2021/05/06 12:16:30;;;;;;;4.10;1.65;;;;;;;14.02;47.82;99847.22;5106788;27;20158;-47
2021/05/06 12:19:09;;;;;;;2.67;1.80;;;;;;;14.00;46.17;99849.03;5124409;27;20051;-48
2021/05/06 12:21:53;;;;;;;3.83;1.58;;;;;;;13.98;45.91;99846.44;5106133;27;20827;-48
2021/05/06 12:24:37;;;;;;;4.53;1.73;;;;;;;13.97;46.51;99844.75;5107632;27;20044;-48
2021/05/06 12:27:23;;;;;;;2.78;1.58;;;;;;;13.95;47.83;99846.56;5106339;27;20622;-48
2021/05/06 12:29:51;;;;;;;3.10;1.60;;;;;;;13.92;46.55;99842.25;5104485;27;20047;-49
2021/05/06 12:32:35;;;;;;;2.57;1.60;;;;;;;13.90;47.74;99824.81;5099724;27;20031;-47
2021/05/06 12:35:01;;;;;;;3.25;1.67;;;;;;;13.88;47.64;99827.50;5074731;28;20297;-47
2021/05/06 12:37:32;;;;;;;3.45;1.45;;;;;;;13.88;46.64;99824.88;5094264;28;20379;-49
2021/05/06 12:40:00;;;;;;;2.35;1.58;;;;;;;13.90;45.80;99816.94;5092526;28;20070;-46
2021/05/06 12:42:31;;;;;;;4.45;1.60;;;;;;;13.92;45.83;99820.38;5079073;28;20326;-45
2021/05/06 12:44:58;;;;;;;5.50;1.80;;;;;;;13.97;45.79;99807.97;5091175;28;20610;-46
2021/05/06 12:47:32;;;;;;;2.95;1.50;;;;;;;14.04;45.46;99817.38;5093410;28;20047;-48
2021/05/06 12:50:21;;;;;;;2.40;1.50;;;;;;;14.10;44.02;99814.53;5076547;28;20039;-48
2021/05/06 12:52:55;;;;;;;2.50;1.40;;;;;;;14.19;45.22;99817.75;5094152;28;20054;-50
2021/05/06 12:55:29;;;;;;;2.30;1.30;;;;;;;14.27;45.30;99806.09;5076238;28;20501;-50
2021/05/06 12:58:06;;;;;;;3.03;1.38;;;;;;;14.36;45.57;99804.03;5088024;28;20043;-48
2021/05/06 13:00:36;;;;;;;3.63;1.50;;;;;;;14.42;46.11;99796.81;5073815;28;20551;-48
2021/05/06 13:03:07;;;;;;;3.47;1.60;;;;;;;14.49;45.54;99794.81;5094005;28;20084;-48
2021/05/06 13:05:37;;;;;;;3.30;1.52;;;;;;;14.55;44.41;99788.50;5086082;28;20116;-48
2021/05/06 13:08:05;;;;;;;3.03;1.50;;;;;;;14.60;45.20;99781.31;5080880;22;20045;-79
2021/05/06 13:10:33;;;;;;;2.60;1.50;;;;;;;14.64;45.35;99783.78;4995168;28;20040;-76
2021/05/06 13:13:00;;;;;;;4.03;1.85;;;;;;;14.69;45.29;99772.25;5019130;28;21535;-77
2021/05/06 13:15:26;;;;;;;2.28;1.30;;;;;;;14.73;45.46;99761.56;4981212;28;20133;-76
2021/05/06 13:17:52;;;;;;;4.45;1.58;;;;;;;14.76;45.49;99761.47;5003499;28;20545;-76
2021/05/06 13:20:23;;;;;;;3.47;1.80;;;;;;;14.79;44.76;99765.75;5012271;28;20045;-78
2021/05/06 13:23:00;;;;;;;2.30;1.58;;;;;;;14.81;44.41;99756.03;4992339;28;20042;-77
2021/05/06 13:26:05;;;;;;;2.80;1.65;;;;;;;14.82;44.54;99755.97;4982315;28;20500;-77
2021/05/06 13:28:31;;;;;;;3.10;1.70;;;;;;;14.85;43.88;99756.78;4924182;28;20053;-77
2021/05/06 13:31:25;;;;;;;3.47;1.77;;;;;;;14.88;44.46;99754.88;4994942;28;20037;-77
2021/05/06 13:34:17;;;;;;;4.32;1.40;;;;;;;14.91;44.61;99746.88;4990768;28;20853;-77
2021/05/06 13:36:44;;;;;;;2.97;1.58;;;;;;;14.95;45.26;99734.44;4996619;28;20040;-77
2021/05/06 13:39:13;;;;;;;3.85;1.60;;;;;;;14.99;45.26;99741.31;5028367;28;20044;-77
2021/05/06 13:41:47;;;;;;;3.38;1.52;;;;;;;15.02;45.48;99737.72;5025544;28;20529;-77
2021/05/06 13:44:16;;;;;;;3.13;1.58;;;;;;;15.03;45.37;99736.81;5007211;28;20440;-77
2021/05/06 13:46:52;;;;;;;3.42;1.70;;;;;;;15.03;44.60;99740.28;5003132;28;20041;-77
2021/05/06 13:49:20;;;;;;;3.63;1.40;;;;;;;15.04;44.67;99733.28;4977871;28;20064;-77
2021/05/06 13:51:46;;;;;;;3.58;1.50;;;;;;;15.03;45.01;99732.38;4993751;28;20145;-77
2021/05/06 13:54:12;;;;;;;3.58;1.50;;;;;;;15.00;44.21;99734.31;4990133;28;20140;-77
2021/05/06 13:56:38;;;;;;;3.55;1.60;;;;;;;14.97;44.49;99727.38;5021594;28;20045;-77
2021/05/06 13:59:04;;;;;;;4.28;1.60;;;;;;;14.93;44.49;99715.25;5011983;28;20045;-77
2021/05/06 14:01:30;;;;;;;2.78;1.52;;;;;;;14.89;44.25;99722.38;5011049;28;20044;-77
2021/05/06 14:03:59;;;;;;;3.28;1.40;;;;;;;14.84;44.30;99713.81;5024091;28;20562;-77
2021/05/06 14:06:25;;;;;;;;;;;;;;;14.79;44.46;99713.97;5002856;28;20045;-77
2021/05/06 14:08:50;;;;;;;2.95;1.35;;;;;;;14.75;43.33;99716.78;4987842;28;19932;-78
2021/05/06 14:11:16;;;;;;;3.53;1.50;;;;;;;14.70;43.71;99718.72;4995081;28;20064;-77
2021/05/06 14:13:43;;;;;;;5.53;2.33;;;;;;;14.65;43.58;99716.28;5025385;28;20950;-78
2021/05/06 14:16:09;;;;;;;2.63;1.30;;;;;;;14.59;43.27;99727.84;4989361;28;20818;-77
2021/05/06 14:18:34;;;;;;;3.95;1.60;;;;;;;14.53;42.85;99728.06;4998140;28;20040;-77
2021/05/06 14:21:02;;;;;;;3.20;1.67;;;;;;;14.49;43.54;99718.56;5012282;28;20037;-77
2021/05/06 14:23:37;;;;;;;3.73;1.77;;;;;;;14.44;43.90;99718.75;5021301;28;20169;-78
2021/05/06 14:26:05;;;;;;;3.15;1.50;;;;;;;14.40;44.54;99713.63;5028887;28;20326;-78
2021/05/06 14:28:31;;;;;;;3.42;1.52;;;;;;;14.34;43.88;99711.22;5004011;28;20064;-77
2021/05/06 14:30:57;;;;;;;3.03;1.50;;;;;;;14.26;44.46;99715.00;4987865;28;20469;-78
2021/05/06 14:33:23;;;;;;;2.42;1.33;;;;;;;14.22;44.12;99720.38;5006583;28;20045;-77
2021/05/06 14:35:49;;;;;;;4.43;1.70;;;;;;;14.16;44.12;99712.72;5024539;28;20567;-78
2021/05/06 14:38:15;;;;;;;3.72;1.40;;;;;;;14.09;44.47;99706.81;5027593;28;20041;-78
2021/05/06 14:40:41;;;;;;;2.83;1.50;;;;;;;14.04;44.31;99714.88;5015000;28;20064;-78
2021/05/06 14:43:07;;;;;;;3.30;1.65;;;;;;;13.98;44.33;99715.06;5001238;28;20630;-77
2021/05/06 14:45:36;;;;;;;3.33;1.35;;;;;;;13.93;44.91;99711.75;4988056;28;20120;-78
2021/05/06 14:48:03;;;;;;;3.35;1.65;;;;;;;13.86;44.47;99711.09;5007098;28;20029;-78
2021/05/06 14:50:31;;;;;;;4.22;1.70;;;;;;;13.79;44.08;99713.06;4989022;28;20071;-78
2021/05/06 14:52:58;;;;;;;2.50;1.50;;;;;;;13.73;44.37;99704.53;5004053;28;20044;-78
2021/05/06 14:55:24;;;;;;;2.67;1.25;;;;;;;13.68;44.52;99714.31;4995453;28;20044;-77
2021/05/06 14:57:52;;;;;;;3.63;1.60;;;;;;;13.61;44.83;99706.66;4981063;28;20045;-78